Gruver, Texas
Current Conditions -  °F | °C
As of 12:53 PM on Friday 24 Oct 2014 (Local Time) from KGUY Reporting Station
Clear Clear  
Wind Chill: 84°   Ceiling: Unl
Heat Index: 84°   Visibility: 10mi
Dew Point: 44°   Wind: 6mph
Humidity: 25%   Direction: 200°SSW
Pressure: 30.1"   Gusts: NA
Location:  36.27°N, 101.41°W
Report Text: KGUY 241753Z AUTO 20005KT 10SM CLR 29/07 A3010 RMK AO2 SLP150 T02890067 10294 20083 58006
Loading
Personal Weather Stations






























Interactive Weather Map
Tropical Storm Tracking
New forecast layout! Learn more

10-Day Weather Forecast

Advertisements
Track Severe Weather on mobile